createdAt,value
2023-05-16T00:01:19.613Z,15.58
2023-05-16T00:03:47.175Z,15.57
2023-05-16T00:06:15.649Z,15.51
2023-05-16T00:08:43.188Z,15.57
2023-05-16T00:11:10.645Z,15.46
2023-05-16T00:13:39.135Z,15.45
2023-05-16T00:16:06.920Z,15.52
2023-05-16T00:18:37.567Z,15.62
2023-05-16T00:21:05.551Z,15.61
2023-05-16T00:23:34.499Z,15.55
2023-05-16T00:26:02.011Z,15.58
2023-05-16T00:28:30.399Z,15.55
2023-05-16T00:30:58.496Z,15.55
2023-05-16T00:33:26.025Z,15.54
2023-05-16T00:35:53.987Z,15.52
2023-05-16T00:38:21.842Z,15.55
2023-05-16T00:40:49.796Z,15.47
2023-05-16T00:43:17.297Z,15.40
2023-05-16T00:45:45.280Z,15.43
2023-05-16T00:48:14.897Z,15.48
2023-05-16T00:50:43.083Z,15.41
2023-05-16T00:53:10.987Z,15.47
2023-05-16T00:55:39.152Z,15.42
2023-05-16T00:58:09.890Z,15.40
2023-05-16T01:00:37.628Z,15.39
2023-05-16T01:03:08.660Z,15.39
2023-05-16T01:05:36.406Z,15.40
2023-05-16T01:08:04.015Z,15.42
2023-05-16T01:10:44.001Z,15.32
2023-05-16T01:13:38.884Z,15.31
2023-05-16T01:17:05.211Z,15.29
2023-05-16T01:20:15.696Z,15.27
2023-05-16T01:22:46.238Z,15.23
2023-05-16T01:56:22.967Z,15.03
2023-05-16T01:58:52.819Z,14.99
2023-05-16T02:01:20.513Z,14.97
2023-05-16T02:03:48.018Z,14.92
2023-05-16T02:06:15.442Z,14.99
2023-05-16T02:08:42.856Z,14.90
2023-05-16T02:11:10.598Z,14.85
2023-05-16T02:13:38.020Z,14.82
2023-05-16T02:16:05.830Z,14.74
2023-05-16T02:18:33.341Z,14.78
2023-05-16T02:21:00.936Z,14.74
2023-05-16T02:23:28.401Z,14.73
2023-05-16T02:25:56.070Z,14.71
2023-05-16T02:28:23.743Z,14.68
2023-05-16T02:30:59.619Z,14.78
2023-05-16T02:33:28.634Z,14.75
2023-05-16T02:35:59.092Z,14.85
2023-05-16T02:38:27.356Z,14.76
2023-05-16T02:40:56.513Z,14.72
2023-05-16T02:43:23.985Z,14.68
2023-05-16T02:45:51.679Z,14.68
2023-05-16T02:48:19.158Z,14.84
2023-05-16T02:50:46.669Z,14.79
2023-05-16T02:53:14.230Z,14.74
2023-05-16T02:55:42.055Z,14.82
2023-05-16T02:58:09.576Z,14.79
2023-05-16T03:00:37.439Z,14.79
2023-05-16T03:03:05.875Z,14.73
2023-05-16T03:05:33.514Z,14.66
2023-05-16T03:08:01.653Z,14.62
2023-05-16T03:10:29.182Z,14.71
2023-05-16T03:12:56.649Z,14.76
2023-05-16T03:15:24.451Z,14.77
2023-05-16T03:17:52.059Z,14.67
2023-05-16T03:20:19.540Z,14.72
2023-05-16T03:22:46.938Z,14.84
2023-05-16T03:25:14.549Z,15.06
2023-05-16T03:27:41.971Z,14.85
2023-05-16T03:30:10.196Z,14.73
2023-05-16T03:32:39.811Z,14.69
2023-05-16T03:35:07.720Z,14.70
2023-05-16T03:37:35.253Z,14.75
2023-05-16T03:40:05.532Z,14.87
2023-05-16T03:42:33.117Z,14.79
2023-05-16T03:45:00.698Z,14.78
2023-05-16T03:47:31.372Z,14.71
2023-05-16T03:49:58.966Z,14.83
2023-05-16T03:52:26.613Z,14.93
2023-05-16T03:54:54.140Z,14.98
2023-05-16T03:57:21.751Z,15.03
2023-05-16T03:59:49.388Z,15.02
2023-05-16T04:02:18.774Z,15.04
2023-05-16T04:04:46.717Z,15.18
2023-05-16T04:09:41.780Z,15.29
2023-05-16T04:12:09.434Z,15.23
2023-05-16T04:14:39.041Z,15.22
2023-05-16T04:17:06.677Z,15.19
2023-05-16T04:19:34.284Z,15.20
2023-05-16T04:22:01.744Z,15.20
2023-05-16T04:24:30.504Z,15.22
2023-05-16T04:26:58.052Z,15.26
2023-05-16T04:29:25.984Z,15.32
2023-05-16T04:31:54.200Z,15.42
2023-05-16T04:34:23.324Z,15.49
2023-05-16T04:36:50.875Z,15.47
2023-05-16T04:39:18.301Z,15.50
2023-05-16T04:41:46.051Z,15.53
2023-05-16T04:44:13.480Z,15.53
2023-05-16T04:46:41.648Z,15.58
2023-05-16T04:49:11.299Z,15.67
2023-05-16T04:51:38.792Z,15.70
2023-05-16T04:54:06.359Z,15.71
2023-05-16T04:56:34.185Z,15.79
2023-05-16T04:59:01.658Z,15.92
2023-05-16T05:01:30.275Z,15.95
2023-05-16T05:03:58.048Z,16.04
2023-05-16T05:06:25.650Z,15.96
2023-05-16T05:08:55.734Z,16.14
2023-05-16T05:11:23.335Z,16.03
2023-05-16T05:13:52.894Z,15.96
2023-05-16T05:16:20.969Z,16.14
2023-05-16T05:18:48.597Z,16.34
2023-05-16T05:21:16.167Z,16.20
2023-05-16T05:23:43.691Z,16.16
2023-05-16T05:26:11.255Z,16.26
2023-05-16T05:28:39.383Z,16.31
2023-05-16T05:31:08.172Z,16.37
2023-05-16T05:33:35.896Z,16.50
2023-05-16T05:36:04.274Z,16.70
2023-05-16T05:38:31.885Z,16.83
2023-05-16T05:40:59.335Z,16.77
2023-05-16T05:43:26.849Z,16.74
2023-05-16T05:45:54.322Z,16.79
2023-05-16T05:48:22.379Z,17.17
2023-05-16T05:50:49.961Z,17.27
2023-05-16T05:53:17.461Z,17.24
2023-05-16T05:55:44.881Z,17.43
2023-05-16T05:58:12.420Z,17.29
2023-05-16T06:00:39.890Z,17.33
2023-05-16T06:03:07.359Z,17.36
2023-05-16T06:05:34.822Z,17.37
2023-05-16T06:08:02.398Z,17.44
2023-05-16T06:10:30.034Z,17.31
2023-05-16T06:12:57.557Z,17.28
2023-05-16T06:15:27.182Z,17.20
2023-05-16T06:17:54.973Z,17.16
2023-05-16T06:20:22.420Z,17.06
2023-05-16T06:22:49.980Z,17.29
2023-05-16T06:25:17.695Z,17.58
2023-05-16T06:27:45.321Z,17.25
2023-05-16T06:30:13.202Z,17.45
2023-05-16T06:32:41.034Z,17.10
2023-05-16T06:35:09.869Z,16.89
2023-05-16T06:37:37.437Z,16.84
2023-05-16T06:40:05.701Z,17.22
2023-05-16T06:42:33.272Z,17.87
2023-05-16T06:45:01.139Z,17.67
2023-05-16T06:47:28.602Z,17.76
2023-05-16T06:49:56.306Z,17.15
2023-05-16T06:52:23.816Z,17.11
2023-05-16T06:54:52.157Z,17.24
2023-05-16T06:57:19.678Z,17.28
2023-05-16T06:59:47.162Z,17.08
2023-05-16T07:02:14.667Z,16.97
2023-05-16T07:04:42.675Z,17.27
2023-05-16T07:07:10.258Z,17.23
2023-05-16T07:09:37.919Z,17.19
2023-05-16T07:12:06.425Z,17.10
2023-05-16T07:14:33.964Z,17.04
2023-05-16T07:17:02.098Z,17.09
2023-05-16T07:19:29.890Z,17.25
2023-05-16T07:21:57.354Z,17.64
2023-05-16T07:24:24.932Z,17.47
2023-05-16T07:26:52.370Z,17.51
2023-05-16T07:29:20.019Z,17.73
2023-05-16T07:31:47.546Z,17.88
2023-05-16T07:34:15.024Z,17.79
2023-05-16T07:36:44.972Z,17.91
2023-05-16T07:39:12.459Z,18.01
2023-05-16T07:41:39.891Z,18.25
2023-05-16T07:44:07.422Z,18.53
2023-05-16T07:46:35.217Z,18.68
2023-05-16T07:49:02.877Z,18.63
2023-05-16T07:51:30.644Z,19.44
2023-05-16T07:53:58.159Z,19.32
2023-05-16T07:56:25.984Z,19.17
2023-05-16T07:58:53.850Z,19.51
2023-05-16T08:01:21.854Z,19.62
2023-05-16T08:03:53.713Z,19.38
2023-05-16T08:06:21.314Z,19.43
2023-05-16T08:08:48.868Z,19.90
2023-05-16T08:11:16.409Z,19.37
2023-05-16T08:13:44.028Z,19.38
2023-05-16T08:16:11.904Z,19.32
2023-05-16T08:18:39.618Z,19.34
2023-05-16T08:21:07.166Z,19.63
2023-05-16T08:23:34.950Z,19.51
2023-05-16T08:26:03.156Z,19.43
2023-05-16T08:28:31.258Z,19.41
2023-05-16T08:30:58.722Z,19.39
2023-05-16T08:33:26.502Z,19.33
2023-05-16T08:35:53.973Z,19.45
2023-05-16T08:38:21.588Z,19.50
2023-05-16T08:40:49.047Z,19.84
2023-05-16T08:43:16.809Z,19.94
2023-05-16T08:45:44.622Z,19.83
2023-05-16T08:48:12.464Z,19.86
2023-05-16T08:50:42.757Z,19.84
2023-05-16T08:53:12.835Z,19.98
2023-05-16T08:55:42.169Z,19.96
2023-05-16T08:58:09.978Z,20.00
2023-05-16T09:00:37.616Z,20.27
2023-05-16T09:03:06.630Z,20.39
2023-05-16T09:05:34.418Z,20.67
2023-05-16T09:08:02.005Z,20.94
2023-05-16T09:10:29.631Z,21.15
2023-05-16T09:12:57.156Z,21.39
2023-05-16T09:15:24.819Z,21.45
2023-05-16T09:17:52.671Z,21.72
2023-05-16T09:20:21.677Z,21.73
2023-05-16T09:23:00.307Z,21.81
2023-05-16T09:25:32.321Z,21.60
2023-05-16T09:28:02.871Z,21.56
2023-05-16T09:30:37.186Z,21.56
2023-05-16T09:33:08.215Z,21.66
2023-05-16T09:35:45.022Z,21.79
2023-05-16T09:38:18.056Z,22.39
2023-05-16T09:40:48.931Z,22.50
2023-05-16T09:43:18.213Z,22.44
2023-05-16T09:45:48.526Z,22.22
2023-05-16T09:48:18.100Z,22.11
2023-05-16T09:50:54.605Z,22.20
2023-05-16T09:53:30.929Z,21.95
2023-05-16T09:56:12.906Z,21.60
2023-05-16T09:58:42.744Z,21.80
2023-05-16T10:01:11.735Z,21.84
2023-05-16T10:03:42.532Z,21.85
2023-05-16T10:06:11.370Z,21.86
2023-05-16T10:08:43.790Z,22.22
2023-05-16T10:11:12.506Z,22.56
2023-05-16T10:13:40.635Z,22.51
2023-05-16T10:16:13.226Z,22.37
2023-05-16T10:18:44.101Z,22.66
2023-05-16T10:21:17.076Z,22.31
2023-05-16T10:23:48.845Z,22.16
2023-05-16T10:26:18.387Z,22.11
2023-05-16T10:28:46.555Z,22.21
2023-05-16T10:31:16.224Z,22.37
2023-05-16T10:33:43.999Z,22.46
2023-05-16T10:36:12.685Z,22.36
2023-05-16T10:38:41.187Z,22.25
2023-05-16T10:41:09.688Z,22.67
2023-05-16T10:43:37.319Z,22.08
2023-05-16T10:46:07.797Z,21.94
2023-05-16T10:48:40.858Z,21.93
2023-05-16T10:51:23.037Z,22.21
2023-05-16T10:53:55.430Z,22.44
2023-05-16T10:56:28.706Z,22.94
2023-05-16T10:58:57.035Z,22.91
2023-05-16T11:01:30.157Z,22.76
2023-05-16T11:04:00.574Z,23.30
2023-05-16T11:06:44.810Z,23.20
2023-05-16T11:09:13.499Z,23.08
2023-05-16T11:11:53.403Z,23.52
2023-05-16T11:14:26.994Z,23.30
2023-05-16T11:17:15.558Z,23.66
2023-05-16T11:19:59.389Z,23.36
2023-05-16T11:22:30.061Z,23.40
2023-05-16T11:25:01.316Z,23.24
2023-05-16T11:27:45.188Z,23.25
2023-05-16T11:30:16.227Z,23.37
2023-05-16T11:32:45.980Z,23.26
2023-05-16T11:35:17.039Z,23.68
2023-05-16T11:37:47.132Z,23.60
2023-05-16T11:40:17.169Z,23.52
2023-05-16T11:42:48.074Z,23.71
2023-05-16T11:45:31.967Z,23.24
2023-05-16T11:48:08.415Z,23.19
2023-05-16T11:50:36.422Z,23.41
2023-05-16T11:53:04.340Z,23.23
2023-05-16T11:55:41.981Z,23.17
2023-05-16T11:58:10.472Z,23.40
2023-05-16T12:00:37.954Z,23.25
2023-05-16T12:03:06.608Z,23.47
2023-05-16T12:05:35.541Z,23.13
2023-05-16T12:08:04.951Z,23.10
2023-05-16T12:10:34.954Z,23.00
2023-05-16T12:13:03.676Z,22.98
2023-05-16T12:15:31.689Z,23.35
2023-05-16T12:17:59.689Z,23.14
2023-05-16T12:20:27.510Z,22.88
2023-05-16T12:22:59.204Z,22.75
2023-05-16T12:25:32.324Z,22.96
2023-05-16T12:28:05.106Z,23.11
2023-05-16T12:30:33.955Z,23.51
2023-05-16T12:33:07.821Z,23.50
2023-05-16T12:35:40.829Z,23.13
2023-05-16T12:38:13.935Z,22.87
2023-05-16T12:40:44.050Z,22.93
2023-05-16T12:43:21.138Z,22.96
2023-05-16T12:45:58.500Z,22.80
2023-05-16T12:48:39.398Z,22.81
2023-05-16T12:51:13.748Z,22.87
2023-05-16T12:53:57.603Z,22.82
2023-05-16T12:56:29.384Z,22.49
2023-05-16T12:58:57.509Z,22.04
2023-05-16T13:01:25.028Z,22.00
2023-05-16T13:03:52.790Z,21.93
2023-05-16T13:06:20.823Z,22.03
2023-05-16T13:08:50.086Z,21.88
2023-05-16T13:11:17.722Z,21.83
2023-05-16T13:13:45.347Z,21.60
2023-05-16T13:16:13.046Z,21.59
2023-05-16T13:18:40.789Z,21.55
2023-05-16T13:21:08.346Z,21.57
2023-05-16T13:23:35.885Z,21.47
2023-05-16T13:26:03.881Z,21.44
2023-05-16T13:28:32.213Z,21.34
2023-05-16T13:31:00.738Z,21.42
2023-05-16T13:33:28.498Z,21.44
2023-05-16T13:35:56.682Z,21.55
2023-05-16T13:38:24.142Z,21.74
2023-05-16T13:40:51.616Z,22.13
2023-05-16T13:43:19.633Z,22.23
2023-05-16T13:45:47.245Z,22.56
2023-05-16T13:48:15.030Z,22.56
2023-05-16T13:50:44.171Z,22.50
2023-05-16T13:53:12.309Z,22.54
2023-05-16T13:55:40.138Z,22.34
2023-05-16T13:58:07.699Z,22.41
2023-05-16T14:00:44.316Z,22.35
2023-05-16T14:03:13.627Z,22.17
2023-05-16T14:05:41.589Z,22.04
2023-05-16T14:08:09.057Z,22.04
2023-05-16T14:10:38.017Z,21.95
2023-05-16T14:13:06.129Z,22.02
2023-05-16T14:15:33.656Z,21.60
2023-05-16T14:18:01.329Z,21.51
2023-05-16T14:20:28.813Z,21.46
2023-05-16T14:22:59.496Z,21.47
2023-05-16T14:25:27.269Z,21.50
2023-05-16T14:27:55.064Z,21.28
2023-05-16T14:30:22.792Z,20.96
2023-05-16T14:32:50.498Z,20.82
2023-05-16T14:35:19.370Z,20.82
2023-05-16T14:37:46.895Z,20.83
2023-05-16T14:40:14.417Z,20.75
2023-05-16T14:42:41.942Z,20.66
2023-05-16T14:45:10.824Z,20.58
2023-05-16T14:47:38.417Z,20.63
2023-05-16T14:50:07.208Z,20.80
2023-05-16T14:52:34.818Z,20.92
2023-05-16T14:55:02.349Z,20.82
2023-05-16T14:57:29.821Z,20.78
2023-05-16T14:59:57.439Z,20.72
2023-05-16T15:02:27.024Z,20.79
2023-05-16T15:04:57.141Z,20.72
2023-05-16T15:07:26.211Z,20.73
2023-05-16T15:09:53.757Z,20.61
2023-05-16T15:12:23.240Z,20.66
2023-05-16T15:14:50.822Z,20.59
2023-05-16T15:17:18.513Z,20.73
2023-05-16T15:19:50.073Z,20.69
2023-05-16T15:22:17.622Z,20.82
2023-05-16T15:24:45.434Z,20.78
2023-05-16T15:27:13.092Z,20.66
2023-05-16T15:29:43.887Z,20.58
2023-05-16T15:32:13.816Z,20.73
2023-05-16T15:35:01.988Z,20.63
2023-05-16T15:37:29.683Z,20.47
2023-05-16T15:39:57.247Z,20.49
2023-05-16T15:42:25.422Z,20.40
2023-05-16T15:44:54.529Z,20.32
2023-05-16T15:47:24.432Z,20.30
2023-05-16T15:49:52.019Z,20.52
2023-05-16T15:52:21.766Z,20.45
2023-05-16T15:54:50.536Z,20.35
2023-05-16T15:57:19.226Z,20.53
2023-05-16T15:59:46.939Z,20.53
2023-05-16T16:02:14.589Z,20.31
2023-05-16T16:04:42.517Z,20.24
2023-05-16T16:07:11.417Z,20.23
2023-05-16T16:09:39.027Z,20.20
2023-05-16T16:12:07.371Z,20.30
2023-05-16T16:14:35.053Z,20.24
2023-05-16T16:17:04.990Z,20.31
2023-05-16T16:19:32.930Z,20.37
2023-05-16T16:22:00.614Z,20.14
2023-05-16T16:24:28.272Z,20.12
2023-05-16T16:26:55.787Z,20.18
2023-05-16T16:29:26.121Z,20.17
2023-05-16T16:31:53.885Z,20.21
2023-05-16T16:34:23.404Z,20.23
2023-05-16T16:36:51.270Z,20.24
2023-05-16T16:39:18.807Z,20.04
2023-05-16T16:41:46.563Z,19.92
2023-05-16T16:44:14.308Z,19.98
2023-05-16T16:46:43.944Z,19.93
2023-05-16T16:49:13.667Z,19.98
2023-05-16T16:51:41.901Z,19.90
2023-05-16T16:54:09.450Z,19.88
2023-05-16T16:56:37.623Z,19.95
2023-05-16T16:59:05.283Z,20.03
2023-05-16T17:01:32.988Z,20.00
2023-05-16T17:04:02.111Z,20.42
2023-05-16T17:06:31.461Z,20.28
2023-05-16T17:09:03.621Z,20.12
2023-05-16T17:11:36.081Z,20.01
2023-05-16T17:14:08.686Z,20.12
2023-05-16T17:16:36.754Z,20.05
2023-05-16T17:19:08.009Z,19.97
2023-05-16T17:21:37.068Z,19.87
2023-05-16T17:24:05.535Z,19.82
2023-05-16T17:26:33.557Z,20.45
2023-05-16T17:29:01.540Z,20.40
2023-05-16T17:31:29.243Z,20.48
2023-05-16T17:33:58.309Z,20.71
2023-05-16T17:36:26.352Z,20.24
2023-05-16T17:38:53.956Z,20.14
2023-05-16T17:41:24.433Z,19.73
2023-05-16T17:43:51.939Z,19.54
2023-05-16T17:46:19.481Z,19.50
2023-05-16T17:48:47.506Z,19.37
2023-05-16T17:51:15.091Z,19.49
2023-05-16T17:53:45.188Z,19.36
2023-05-16T17:56:12.810Z,19.20
2023-05-16T17:58:40.493Z,19.27
2023-05-16T18:01:09.388Z,19.03
2023-05-16T18:03:40.101Z,19.08
2023-05-16T18:06:08.556Z,19.19
2023-05-16T18:08:36.745Z,19.20
2023-05-16T18:11:04.272Z,19.03
2023-05-16T18:13:32.981Z,19.00
2023-05-16T18:16:03.518Z,19.10
2023-05-16T18:18:31.937Z,19.77
2023-05-16T18:21:03.139Z,19.60
2023-05-16T18:23:31.585Z,19.08
2023-05-16T18:25:59.575Z,18.91
2023-05-16T18:28:27.554Z,18.78
2023-05-16T18:30:55.781Z,18.88
2023-05-16T18:33:23.908Z,18.71
2023-05-16T18:35:53.146Z,18.55
2023-05-16T18:38:32.164Z,18.62
2023-05-16T18:41:01.468Z,18.71
2023-05-16T18:43:30.023Z,18.47
2023-05-16T18:45:58.037Z,18.60
2023-05-16T18:48:26.294Z,18.61
2023-05-16T18:50:58.659Z,18.35
2023-05-16T18:53:27.585Z,18.39
2023-05-16T18:55:56.815Z,18.33
2023-05-16T18:58:25.933Z,18.24
2023-05-16T19:00:59.551Z,18.14
2023-05-16T19:03:30.158Z,18.18
2023-05-16T19:05:58.297Z,18.18
2023-05-16T19:08:31.309Z,18.21
2023-05-16T19:11:07.709Z,18.37
2023-05-16T19:13:36.597Z,18.18
2023-05-16T19:16:05.453Z,18.11
2023-05-16T19:18:36.104Z,18.15
2023-05-16T19:21:04.089Z,18.06
2023-05-16T19:23:32.121Z,18.10
2023-05-16T19:26:00.722Z,18.08
2023-05-16T19:28:31.536Z,18.10
2023-05-16T19:31:00.100Z,18.14
2023-05-16T19:33:53.048Z,18.22
2023-05-16T19:36:21.828Z,18.39
2023-05-16T19:39:12.587Z,18.37
2023-05-16T19:41:41.010Z,18.39
2023-05-16T19:44:09.013Z,18.45
2023-05-16T19:46:37.560Z,18.39
2023-05-16T19:49:06.761Z,18.38
2023-05-16T19:51:41.769Z,18.37
2023-05-16T19:54:10.669Z,18.40
2023-05-16T19:56:38.729Z,18.38
2023-05-16T19:59:07.365Z,18.36
2023-05-16T20:01:36.149Z,18.38
2023-05-16T20:04:05.687Z,18.41
2023-05-16T20:06:33.491Z,18.43
2023-05-16T20:09:01.231Z,18.47
2023-05-16T20:11:29.423Z,18.47
2023-05-16T20:14:00.324Z,18.35
2023-05-16T20:16:28.761Z,18.33
2023-05-16T20:18:56.554Z,18.29
2023-05-16T20:21:26.653Z,18.28
2023-05-16T20:23:54.727Z,18.18
2023-05-16T20:26:23.936Z,18.11
2023-05-16T20:29:11.712Z,18.18
2023-05-16T20:31:43.794Z,17.98
2023-05-16T20:34:11.994Z,17.95
2023-05-16T20:36:40.696Z,17.96
2023-05-16T20:39:11.453Z,17.94
2023-05-16T20:41:40.554Z,17.98
2023-05-16T20:44:08.177Z,18.06
2023-05-16T20:46:37.145Z,18.24
2023-05-16T20:49:05.909Z,18.14
2023-05-16T20:51:33.984Z,18.03
2023-05-16T20:54:03.076Z,17.96
2023-05-16T20:56:30.635Z,17.96
2023-05-16T20:58:58.168Z,18.09
2023-05-16T21:01:25.843Z,18.09
2023-05-16T21:03:53.404Z,18.04
2023-05-16T21:06:21.504Z,18.06
2023-05-16T21:08:49.139Z,18.05
2023-05-16T21:11:17.093Z,18.06
2023-05-16T21:13:47.781Z,18.02
2023-05-16T21:16:15.946Z,18.02
2023-05-16T21:18:43.832Z,17.92
2023-05-16T21:21:12.113Z,17.88
2023-05-16T21:23:39.649Z,17.93
2023-05-16T21:26:07.379Z,18.09
2023-05-16T21:28:42.588Z,18.55
2023-05-16T21:31:14.020Z,18.53
2023-05-16T21:33:43.054Z,18.18
2023-05-16T21:36:10.906Z,17.99
2023-05-16T21:38:38.422Z,17.91
2023-05-16T21:41:06.334Z,17.84
2023-05-16T21:43:33.911Z,17.73
2023-05-16T21:46:01.698Z,17.77
2023-05-16T21:48:29.322Z,17.75
2023-05-16T21:50:56.916Z,17.84
2023-05-16T21:53:26.333Z,17.83
2023-05-16T21:55:54.971Z,17.67
2023-05-16T21:58:23.884Z,17.76
2023-05-16T22:00:51.477Z,17.95
2023-05-16T22:03:21.057Z,17.69
2023-05-16T22:05:49.041Z,17.75
2023-05-16T22:08:16.712Z,17.72
2023-05-16T22:10:44.390Z,17.55
2023-05-16T22:13:11.905Z,17.41
2023-05-16T22:15:40.949Z,17.31
2023-05-16T22:18:10.447Z,17.22
2023-05-16T22:20:38.266Z,17.10
2023-05-16T22:23:06.086Z,16.86
2023-05-16T22:25:33.654Z,16.66
2023-05-16T22:28:01.263Z,16.52
2023-05-16T22:30:29.259Z,16.52
2023-05-16T22:32:58.041Z,16.64
2023-05-16T22:35:27.601Z,16.52
2023-05-16T22:37:55.335Z,16.36
2023-05-16T22:40:22.785Z,16.14
2023-05-16T22:42:50.325Z,15.99
2023-05-16T22:45:17.891Z,16.05
2023-05-16T22:47:46.708Z,15.99
2023-05-16T22:50:14.356Z,15.88
2023-05-16T22:52:41.978Z,15.91
2023-05-16T22:55:09.880Z,15.79
2023-05-16T22:57:38.017Z,15.80
2023-05-16T23:00:06.467Z,15.93
2023-05-16T23:02:34.116Z,15.73
2023-05-16T23:05:01.980Z,15.82
2023-05-16T23:07:30.290Z,15.74
2023-05-16T23:09:57.822Z,15.81
2023-05-16T23:12:26.033Z,15.76
2023-05-16T23:14:54.252Z,15.77
2023-05-16T23:17:21.803Z,15.73
2023-05-16T23:19:49.412Z,15.64
2023-05-16T23:22:16.971Z,15.77
2023-05-16T23:24:44.458Z,15.83
2023-05-16T23:27:11.963Z,15.79
2023-05-16T23:29:39.475Z,15.68
2023-05-16T23:32:07.417Z,15.57
2023-05-16T23:34:34.875Z,15.54
2023-05-16T23:37:02.362Z,15.43
2023-05-16T23:39:29.941Z,15.49
2023-05-16T23:41:58.412Z,15.57
2023-05-16T23:44:25.930Z,15.56
2023-05-16T23:46:53.415Z,15.60
2023-05-16T23:49:20.884Z,15.59
2023-05-16T23:51:57.482Z,15.62
2023-05-16T23:54:27.059Z,15.72
2023-05-16T23:56:54.556Z,16.45
2023-05-16T23:59:23.030Z,15.89
